Naniwa Maru No.21 — JG5648 — position and weather

sailwx.info

Track history (hours):
 
Tides and Currents Weather Stations Pressure Air Temp Water Temp Dewpoint Dewpoint Depression Visibility Wind Speed Wind Dir Waves Ship Positions

Naniwa Maru No.21

Last reported at 2016-Jun-23 11:15 UTC. Time now 2016-Jun-24 22:16 UTC.
Position N 34°38' E 134°59'.

Length 71 m; draft 5.2 m.

Type: Tanker. MMSI: 431301595.

Date/timePositionNaut miles runAvg speedWind from/ knotsBaromVisibWave heightAir tempDewpointWater temp
2016-Jun-23 11:15N 34°38' E 134°59'913.2
2016-Jun-23 10:33N 34°35' E 135°10'13 1.7
2016-Jun-23 03:17N 34°33' E 135°25'5 2.7
2016-Jun-23 01:24N 34°32' E 135°19'0 0.0
2016-Jun-23 00:06N 34°32' E 135°19'0 0.0
2016-Jun-22 23:33N 34°32' E 135°19'0 0.0
2016-Jun-22 22:33N 34°32' E 135°19'0 0.1
2016-Jun-22 21:33N 34°32' E 135°19'3 2.9
2016-Jun-22 20:33N 34°33' E 135°15'1514.4
2016-Jun-22 19:32N 34°37' E 134°58'  
2016-Jun-16 05:32N 34°35' E 135°07'1313.0
2016-Jun-16 04:32N 34°36' E 135°23'3 1.5
2016-Jun-16 02:29N 34°35' E 135°26'0 0.0
2016-Jun-16 01:17N 34°35' E 135°26'0 0.4
2016-Jun-16 00:19N 34°35' E 135°25'7 8.9
2016-Jun-15 23:32N 34°36' E 135°17'1212.6
2016-Jun-15 22:33N 34°36' E 135°02'  
Track history (hours):
 
Tides and Currents Weather Stations Pressure Air Temp Water Temp Dewpoint Dewpoint Depression Visibility Wind Speed Wind Dir Waves Ship Positions

Naniwa Maru No.21

Last reported at 2016-Jun-23 11:15 UTC. Time now 2016-Jun-24 22:16 UTC.
Position N 34°38' E 134°59'.

Length 71 m; draft 5.2 m.

Type: Tanker. MMSI: 431301595.

Date/timePositionNaut miles runAvg speedWind from/ knotsBaromVisibWave heightAir tempDewpointWater temp
2016-Jun-23 11:15N 34°38' E 134°59'913.2
2016-Jun-23 10:33N 34°35' E 135°10'13 1.7
2016-Jun-23 03:17N 34°33' E 135°25'5 2.7
2016-Jun-23 01:24N 34°32' E 135°19'0 0.0
2016-Jun-23 00:06N 34°32' E 135°19'0 0.0
2016-Jun-22 23:33N 34°32' E 135°19'0 0.0
2016-Jun-22 22:33N 34°32' E 135°19'0 0.1
2016-Jun-22 21:33N 34°32' E 135°19'3 2.9
2016-Jun-22 20:33N 34°33' E 135°15'1514.4
2016-Jun-22 19:32N 34°37' E 134°58'  
2016-Jun-16 05:32N 34°35' E 135°07'1313.0
2016-Jun-16 04:32N 34°36' E 135°23'3 1.5
2016-Jun-16 02:29N 34°35' E 135°26'0 0.0
2016-Jun-16 01:17N 34°35' E 135°26'0 0.4
2016-Jun-16 00:19N 34°35' E 135°25'7 8.9
2016-Jun-15 23:32N 34°36' E 135°17'1212.6
2016-Jun-15 22:33N 34°36' E 135°02'  

Dump ship's entire track history